createdAt,value
2018-01-11T00:01:34.967Z,37.83
2018-01-11T00:04:03.374Z,46.83
2018-01-11T00:06:31.661Z,45.00
2018-01-11T00:09:00.724Z,45.80
2018-01-11T00:11:29.000Z,46.23
2018-01-11T00:13:57.264Z,47.83
2018-01-11T00:16:25.543Z,42.97
2018-01-11T00:18:53.857Z,45.77
2018-01-11T00:21:22.115Z,40.67
2018-01-11T00:23:50.394Z,33.70
2018-01-11T00:26:18.682Z,45.70
2018-01-11T00:28:46.959Z,44.93
2018-01-11T00:31:15.335Z,41.20
2018-01-11T00:33:43.621Z,42.17
2018-01-11T00:36:11.884Z,37.63
2018-01-11T00:38:40.274Z,40.70
2018-01-11T00:41:08.546Z,36.80
2018-01-11T00:43:36.835Z,35.90
2018-01-11T00:46:05.207Z,40.90
2018-01-11T00:48:33.456Z,39.80
2018-01-11T00:51:01.872Z,43.03
2018-01-11T00:53:30.121Z,35.60
2018-01-11T00:55:58.406Z,36.77
2018-01-11T00:58:26.693Z,35.47
2018-01-11T01:00:54.976Z,39.87
2018-01-11T01:03:23.252Z,42.40
2018-01-11T01:05:51.519Z,43.60
2018-01-11T01:08:19.904Z,42.13
2018-01-11T01:10:48.196Z,42.97
2018-01-11T01:13:16.475Z,42.03
2018-01-11T01:15:45.508Z,42.27
2018-01-11T01:18:13.797Z,43.47
2018-01-11T01:20:42.065Z,42.97
2018-01-11T01:23:11.109Z,50.60
2018-01-11T01:25:39.383Z,48.80
2018-01-11T01:28:07.683Z,47.50
2018-01-11T01:30:35.952Z,53.77
2018-01-11T01:33:04.244Z,57.50
2018-01-11T01:35:32.632Z,37.50
2018-01-11T01:38:00.901Z,45.87
2018-01-11T01:40:29.294Z,37.97
2018-01-11T01:42:57.552Z,45.57
2018-01-11T01:45:25.817Z,44.43
2018-01-11T01:47:54.096Z,42.17
2018-01-11T01:50:22.386Z,45.17
2018-01-11T01:52:50.684Z,47.00
2018-01-11T01:55:18.948Z,54.77
2018-01-11T01:57:47.284Z,53.40
2018-01-11T02:00:16.322Z,50.87
2018-01-11T02:02:44.621Z,48.57
2018-01-11T02:05:12.888Z,48.70
2018-01-11T02:07:41.291Z,42.90
2018-01-11T02:10:09.545Z,52.17
2018-01-11T02:12:37.827Z,48.27
2018-01-11T02:15:06.097Z,43.70
2018-01-11T02:17:34.511Z,41.50
2018-01-11T02:20:04.292Z,55.20
2018-01-11T02:22:32.561Z,46.03
2018-01-11T02:25:00.862Z,43.73
2018-01-11T02:27:29.115Z,54.83
2018-01-11T02:29:57.386Z,51.57
2018-01-11T02:32:25.668Z,58.03
2018-01-11T02:34:53.979Z,45.80
2018-01-11T02:37:22.356Z,43.97
2018-01-11T02:39:50.610Z,43.27
2018-01-11T02:42:18.904Z,40.13
2018-01-11T02:44:47.274Z,47.40
2018-01-11T02:47:15.523Z,49.30
2018-01-11T02:49:43.829Z,38.80
2018-01-11T02:52:12.091Z,45.23
2018-01-11T02:54:40.383Z,39.97
2018-01-11T02:57:08.764Z,40.63
2018-01-11T02:59:37.012Z,41.70
2018-01-11T03:02:05.417Z,41.90
2018-01-11T03:04:33.686Z,43.43
2018-01-11T03:07:01.972Z,42.30
2018-01-11T03:09:30.237Z,45.90
2018-01-11T03:11:58.534Z,46.20
2018-01-11T03:14:27.228Z,43.33
2018-01-11T03:16:55.699Z,42.50
2018-01-11T03:19:23.979Z,46.53
2018-01-11T03:21:52.271Z,42.30
2018-01-11T03:24:21.308Z,43.87
2018-01-11T03:26:49.588Z,43.67
2018-01-11T03:29:17.863Z,39.37
2018-01-11T03:31:46.143Z,46.97
2018-01-11T03:34:14.667Z,43.67
2018-01-11T03:36:43.042Z,38.17
2018-01-11T03:39:11.297Z,48.90
2018-01-11T03:41:39.561Z,35.73
2018-01-11T03:44:07.844Z,40.13
2018-01-11T03:46:36.100Z,39.33
2018-01-11T03:49:04.426Z,41.50
2018-01-11T03:51:32.677Z,38.73
2018-01-11T03:54:00.958Z,37.67
2018-01-11T03:56:29.228Z,38.87
2018-01-11T03:58:57.637Z,40.10
2018-01-11T04:01:25.883Z,42.77
2018-01-11T04:03:54.158Z,40.80
2018-01-11T04:06:22.444Z,40.33
2018-01-11T04:08:50.707Z,38.47
2018-01-11T04:11:19.202Z,44.07
2018-01-11T04:13:47.459Z,43.50
2018-01-11T04:16:15.753Z,33.20
2018-01-11T04:18:44.016Z,35.83
2018-01-11T04:21:12.283Z,36.30
2018-01-11T04:23:40.568Z,38.53
2018-01-11T04:26:08.828Z,39.60
2018-01-11T04:28:37.153Z,39.10
2018-01-11T04:31:05.404Z,36.30
2018-01-11T04:33:33.805Z,35.07
2018-01-11T04:36:02.087Z,42.07
2018-01-11T04:38:30.374Z,39.30
2018-01-11T04:41:00.174Z,33.80
2018-01-11T04:43:28.509Z,39.47
2018-01-11T04:45:56.762Z,46.87
2018-01-11T04:48:25.836Z,48.50
2018-01-11T04:50:55.023Z,46.10
2018-01-11T04:53:23.402Z,46.60
2018-01-11T04:55:51.681Z,50.00
2018-01-11T04:58:20.057Z,46.10
2018-01-11T05:00:53.196Z,42.20
2018-01-11T05:03:22.243Z,47.27
2018-01-11T05:05:51.141Z,46.07
2018-01-11T05:08:19.405Z,58.50
2018-01-11T05:10:47.692Z,44.87
2018-01-11T05:13:16.062Z,43.43
2018-01-11T05:15:44.447Z,45.70
2018-01-11T05:18:12.723Z,36.53
2018-01-11T05:20:40.973Z,53.13
2018-01-11T05:23:09.252Z,42.07
2018-01-11T05:25:39.005Z,45.57
2018-01-11T05:28:07.269Z,45.90
2018-01-11T05:30:35.541Z,47.77
2018-01-11T05:33:03.819Z,43.10
2018-01-11T05:35:32.200Z,50.17
2018-01-11T05:38:00.489Z,49.33
2018-01-11T05:40:28.773Z,50.97
2018-01-11T05:42:58.548Z,43.20
2018-01-11T05:45:26.846Z,48.37
2018-01-11T05:47:55.101Z,46.23
2018-01-11T05:50:23.387Z,44.97
2018-01-11T05:52:51.659Z,50.93
2018-01-11T05:55:19.929Z,54.63
2018-01-11T05:57:48.209Z,48.20
2018-01-11T06:00:16.480Z,48.20
2018-01-11T06:02:44.885Z,48.80
2018-01-11T06:05:13.265Z,49.10
2018-01-11T06:07:41.644Z,60.57
2018-01-11T06:10:09.899Z,62.83
2018-01-11T06:12:38.184Z,43.33
2018-01-11T06:15:06.453Z,56.57
2018-01-11T06:17:34.745Z,61.57
2018-01-11T06:20:03.038Z,53.90
2018-01-11T06:22:31.347Z,51.93
2018-01-11T06:25:00.468Z,57.50
2018-01-11T06:27:28.783Z,53.83
2018-01-11T06:29:57.085Z,52.30
2018-01-11T06:32:26.120Z,58.27
2018-01-11T06:34:54.424Z,59.97
2018-01-11T06:37:22.691Z,49.63
2018-01-11T06:39:50.962Z,57.20
2018-01-11T06:42:19.253Z,52.67
2018-01-11T06:44:47.517Z,48.80
2018-01-11T06:47:15.808Z,54.40
2018-01-11T06:49:44.093Z,49.43
2018-01-11T06:52:12.356Z,56.07
2018-01-11T06:54:40.640Z,56.60
2018-01-11T06:57:08.908Z,56.37
2018-01-11T06:59:37.191Z,53.27
2018-01-11T07:02:06.246Z,48.10
2018-01-11T07:04:34.552Z,54.17
2018-01-11T07:07:02.836Z,58.70
2018-01-11T07:09:31.084Z,54.73
2018-01-11T07:11:59.372Z,53.73
2018-01-11T07:14:27.651Z,53.27
2018-01-11T07:16:55.938Z,54.40
2018-01-11T07:19:24.204Z,76.20
2018-01-11T07:21:52.488Z,60.17
2018-01-11T07:24:20.754Z,51.67
2018-01-11T07:26:49.089Z,54.97
2018-01-11T07:29:18.178Z,56.47
2018-01-11T07:31:46.547Z,55.77
2018-01-11T07:34:14.853Z,53.57
2018-01-11T07:36:43.116Z,63.27
2018-01-11T07:39:12.299Z,55.80
2018-01-11T07:41:40.550Z,61.10
2018-01-11T07:44:08.817Z,52.27
2018-01-11T07:46:37.132Z,52.60
2018-01-11T07:49:05.525Z,52.23
2018-01-11T07:51:35.320Z,53.87
2018-01-11T07:54:03.572Z,45.47
2018-01-11T07:56:31.875Z,54.00
2018-01-11T07:59:00.134Z,52.63
2018-01-11T08:01:28.403Z,55.63
2018-01-11T08:03:56.676Z,60.90
2018-01-11T08:06:25.580Z,57.30
2018-01-11T08:08:53.888Z,56.70
2018-01-11T08:11:22.136Z,54.43
2018-01-11T08:13:50.428Z,58.77
2018-01-11T08:16:18.693Z,60.90
2018-01-11T08:18:47.087Z,54.70
2018-01-11T08:21:15.467Z,65.47
2018-01-11T08:23:43.848Z,60.80
2018-01-11T08:26:13.021Z,50.77
2018-01-11T08:28:41.299Z,63.27
2018-01-11T08:31:09.561Z,75.47
2018-01-11T08:33:38.797Z,59.57
2018-01-11T08:36:07.048Z,65.13
2018-01-11T08:38:35.312Z,59.53
2018-01-11T08:41:03.629Z,55.20
2018-01-11T08:43:31.894Z,69.57
2018-01-11T08:46:00.184Z,60.80
2018-01-11T08:48:28.457Z,61.50
2018-01-11T08:50:56.737Z,65.47
2018-01-11T08:53:25.086Z,66.50
2018-01-11T08:55:53.408Z,64.10
2018-01-11T08:58:22.486Z,72.93
2018-01-11T09:00:50.759Z,63.73
2018-01-11T09:03:19.073Z,62.30
2018-01-11T09:05:48.145Z,63.63
2018-01-11T09:08:16.519Z,66.90
2018-01-11T09:10:44.798Z,76.70
2018-01-11T09:13:13.568Z,54.03
2018-01-11T09:15:41.833Z,76.63
2018-01-11T09:18:10.134Z,65.00
2018-01-11T09:20:38.415Z,65.90
2018-01-11T09:23:06.671Z,67.10
2018-01-11T09:25:34.951Z,67.50
2018-01-11T09:28:03.220Z,71.40
2018-01-11T09:30:31.500Z,57.67
2018-01-11T09:32:59.771Z,58.43
2018-01-11T09:35:28.075Z,55.80
2018-01-11T09:37:56.326Z,68.20
2018-01-11T09:40:24.631Z,67.30
2018-01-11T09:42:52.896Z,56.47
2018-01-11T09:45:21.164Z,69.43
2018-01-11T09:47:49.464Z,62.33
2018-01-11T09:50:17.766Z,55.23
2018-01-11T09:52:46.808Z,53.10
2018-01-11T09:55:15.072Z,64.37
2018-01-11T09:57:43.335Z,52.57
2018-01-11T10:00:12.106Z,67.40
2018-01-11T10:02:41.177Z,58.60
2018-01-11T10:05:09.479Z,54.40
2018-01-11T10:07:37.780Z,60.47
2018-01-11T10:10:06.052Z,60.20
2018-01-11T10:12:34.358Z,64.67
2018-01-11T10:15:02.719Z,53.13
2018-01-11T10:17:31.041Z,44.53
2018-01-11T10:19:59.303Z,45.77
2018-01-11T10:22:28.446Z,55.10
2018-01-11T10:24:57.479Z,54.07
2018-01-11T10:27:25.796Z,50.20
2018-01-11T10:29:54.065Z,50.50
2018-01-11T10:32:22.442Z,47.70
2018-01-11T10:34:50.722Z,40.97
2018-01-11T10:37:18.996Z,51.90
2018-01-11T10:39:47.267Z,51.03
2018-01-11T10:42:15.574Z,53.60
2018-01-11T10:44:43.836Z,53.03
2018-01-11T10:47:12.125Z,48.23
2018-01-11T10:49:40.391Z,45.03
2018-01-11T10:52:10.190Z,57.23
2018-01-11T10:54:38.453Z,55.00
2018-01-11T10:57:06.743Z,56.30
2018-01-11T10:59:35.025Z,46.50
2018-01-11T11:02:09.165Z,59.70
2018-01-11T11:04:38.195Z,55.10
2018-01-11T11:07:06.453Z,48.17
2018-01-11T11:09:35.495Z,51.07
2018-01-11T11:12:04.657Z,50.93
2018-01-11T11:14:32.963Z,45.57
2018-01-11T11:17:01.258Z,59.28
2018-01-11T11:19:29.512Z,49.60
2018-01-11T11:21:57.800Z,46.33
2018-01-11T11:24:26.096Z,39.17
2018-01-11T11:26:54.573Z,45.17
2018-01-11T11:29:22.827Z,45.37
2018-01-11T11:31:51.142Z,45.50
2018-01-11T11:34:19.424Z,43.60
2018-01-11T11:36:50.029Z,44.57
2018-01-11T11:39:18.424Z,43.93
2018-01-11T11:41:46.676Z,45.77
2018-01-11T11:44:14.940Z,34.70
2018-01-11T11:46:43.227Z,43.03
2018-01-11T11:49:11.492Z,38.53
2018-01-11T11:51:40.732Z,43.63
2018-01-11T11:54:09.116Z,41.13
2018-01-11T11:56:37.418Z,45.63
2018-01-11T11:59:05.765Z,44.33
2018-01-11T12:01:34.250Z,38.33
2018-01-11T12:04:02.515Z,36.23
2018-01-11T12:06:30.775Z,62.00
2018-01-11T12:08:59.077Z,48.50
2018-01-11T12:11:27.339Z,35.40
2018-01-11T12:13:55.633Z,30.23
2018-01-11T12:16:23.892Z,27.43
2018-01-11T12:18:52.172Z,29.93
2018-01-11T12:21:20.629Z,34.87
2018-01-11T12:23:48.976Z,37.07
2018-01-11T12:26:17.228Z,32.37
2018-01-11T12:28:45.607Z,36.70
2018-01-11T12:31:13.985Z,41.83
2018-01-11T12:33:42.257Z,38.90
2018-01-11T12:36:10.518Z,40.23
2018-01-11T12:38:38.807Z,38.97
2018-01-11T12:41:07.075Z,35.60
2018-01-11T12:43:35.332Z,33.80
2018-01-11T12:46:03.627Z,40.10
2018-01-11T12:48:31.880Z,40.87
2018-01-11T12:51:00.181Z,32.57
2018-01-11T12:53:28.475Z,34.83
2018-01-11T12:55:56.751Z,32.47
2018-01-11T12:58:25.131Z,32.27
2018-01-11T13:00:53.395Z,38.33
2018-01-11T13:03:21.682Z,39.23
2018-01-11T13:05:49.979Z,36.47
2018-01-11T13:08:19.041Z,35.70
2018-01-11T13:10:47.352Z,34.37
2018-01-11T13:13:15.637Z,34.67
2018-01-11T13:15:44.737Z,42.67
2018-01-11T13:18:14.832Z,38.07
2018-01-11T13:20:43.109Z,36.70
2018-01-11T13:23:11.472Z,33.80
2018-01-11T13:25:39.768Z,33.57
2018-01-11T13:28:08.143Z,34.07
2018-01-11T13:30:36.396Z,40.33
2018-01-11T13:33:04.666Z,43.97
2018-01-11T13:35:33.076Z,37.07
2018-01-11T13:38:01.333Z,38.50
2018-01-11T13:40:29.632Z,38.77
2018-01-11T13:42:58.010Z,43.63
2018-01-11T13:45:26.294Z,36.50
2018-01-11T13:47:54.578Z,41.03
2018-01-11T13:50:24.345Z,42.00
2018-01-11T13:52:52.632Z,46.77
2018-01-11T13:55:20.898Z,38.43
2018-01-11T13:57:49.155Z,39.40
2018-01-11T14:00:17.438Z,40.77
2018-01-11T14:02:45.700Z,40.87
2018-01-11T14:05:14.755Z,42.33
2018-01-11T14:07:43.015Z,42.23
2018-01-11T14:10:11.284Z,37.50
2018-01-11T14:12:39.589Z,40.47
2018-01-11T14:15:07.840Z,48.40
2018-01-11T14:17:36.132Z,42.67
2018-01-11T14:20:04.401Z,43.83
2018-01-11T14:22:32.675Z,43.57
2018-01-11T14:25:00.991Z,42.00
2018-01-11T14:27:29.248Z,46.33
2018-01-11T14:29:57.627Z,41.27
2018-01-11T14:32:26.008Z,46.43
2018-01-11T14:34:54.257Z,58.63
2018-01-11T14:37:22.541Z,48.03
2018-01-11T14:39:50.813Z,47.93
2018-01-11T14:42:19.102Z,51.77
2018-01-11T14:44:47.368Z,50.00
2018-01-11T14:47:15.671Z,52.40
2018-01-11T14:49:43.948Z,49.73
2018-01-11T14:52:12.211Z,45.63
2018-01-11T14:54:40.512Z,46.87
2018-01-11T14:57:08.777Z,46.03
2018-01-11T14:59:37.037Z,40.47
2018-01-11T15:02:05.316Z,45.47
2018-01-11T15:04:33.579Z,52.80
2018-01-11T15:07:01.889Z,45.30
2018-01-11T15:09:30.273Z,45.57
2018-01-11T15:11:58.527Z,51.20
2018-01-11T15:14:26.805Z,46.17
2018-01-11T15:16:55.200Z,52.00
2018-01-11T15:19:23.579Z,50.70
2018-01-11T15:21:51.855Z,42.90
2018-01-11T15:24:20.119Z,43.53
2018-01-11T15:26:48.392Z,38.93
2018-01-11T15:29:16.652Z,37.47
2018-01-11T15:31:44.940Z,36.23
2018-01-11T15:34:13.200Z,37.90
2018-01-11T15:36:41.668Z,46.63
2018-01-11T15:39:10.820Z,36.00
2018-01-11T15:41:39.101Z,36.77
2018-01-11T15:44:07.396Z,39.47
2018-01-11T15:46:36.573Z,29.57
2018-01-11T15:49:04.843Z,76.90
2018-01-11T15:51:33.122Z,41.00
2018-01-11T15:54:01.403Z,32.90
2018-01-11T15:56:29.785Z,31.60
2018-01-11T15:58:58.164Z,34.57
2018-01-11T16:01:26.420Z,27.53
2018-01-11T16:03:54.704Z,36.00
2018-01-11T16:06:22.992Z,25.20
2018-01-11T16:08:52.055Z,35.60
2018-01-11T16:11:20.316Z,28.67
2018-01-11T16:13:48.746Z,33.30
2018-01-11T16:16:17.024Z,30.57
2018-01-11T16:18:45.272Z,34.27
2018-01-11T16:21:13.574Z,30.80
2018-01-11T16:23:41.969Z,38.53
2018-01-11T16:26:11.873Z,38.03
2018-01-11T16:28:40.139Z,34.17
2018-01-11T16:31:08.649Z,30.00
2018-01-11T16:33:37.115Z,40.47
2018-01-11T16:36:05.405Z,30.80
2018-01-11T16:38:33.667Z,31.70
2018-01-11T16:41:01.984Z,32.10
2018-01-11T16:43:30.323Z,29.33
2018-01-11T16:45:58.582Z,31.90
2018-01-11T16:48:26.864Z,29.67
2018-01-11T16:50:55.148Z,34.40
2018-01-11T16:53:23.430Z,34.50
2018-01-11T16:55:51.703Z,33.23
2018-01-11T16:58:19.988Z,33.00
2018-01-11T17:00:48.365Z,29.20
2018-01-11T17:03:16.625Z,32.83
2018-01-11T17:05:44.903Z,33.43
2018-01-11T17:08:13.172Z,32.97
2018-01-11T17:10:41.472Z,35.27
2018-01-11T17:13:09.725Z,38.57
2018-01-11T17:15:38.040Z,34.03
2018-01-11T17:18:06.292Z,31.23
2018-01-11T17:20:34.556Z,34.90
2018-01-11T17:23:02.858Z,35.67
2018-01-11T17:25:31.134Z,33.20
2018-01-11T17:27:59.412Z,38.00
2018-01-11T17:30:27.701Z,46.13
2018-01-11T17:32:55.972Z,42.33
2018-01-11T17:35:24.272Z,33.33
2018-01-11T17:37:53.305Z,34.37
2018-01-11T17:40:21.583Z,36.20
2018-01-11T17:42:49.867Z,38.47
2018-01-11T17:45:18.275Z,41.87
2018-01-11T17:47:46.552Z,43.97
2018-01-11T17:50:14.931Z,40.53
2018-01-11T17:52:43.230Z,39.60
2018-01-11T17:55:12.993Z,47.07
2018-01-11T17:57:41.275Z,44.30
2018-01-11T18:00:09.540Z,46.00
2018-01-11T18:02:37.822Z,38.37
2018-01-11T18:05:06.103Z,43.30
2018-01-11T18:07:34.507Z,47.83
2018-01-11T18:10:02.757Z,52.40
2018-01-11T18:12:31.020Z,48.80
2018-01-11T18:14:59.340Z,38.23
2018-01-11T18:17:27.617Z,40.90
2018-01-11T18:19:55.900Z,45.63
2018-01-11T18:22:24.174Z,42.23
2018-01-11T18:24:52.552Z,41.30
2018-01-11T18:27:20.929Z,43.47
2018-01-11T18:29:49.208Z,48.70
2018-01-11T18:32:17.483Z,44.37
2018-01-11T18:34:45.728Z,55.23
2018-01-11T18:37:14.020Z,49.40
2018-01-11T18:39:42.285Z,46.40
2018-01-11T18:42:10.571Z,52.97
2018-01-11T18:44:38.836Z,51.23
2018-01-11T18:47:07.119Z,50.23
2018-01-11T18:49:35.378Z,51.37
2018-01-11T18:52:03.682Z,52.70
2018-01-11T18:54:31.936Z,59.10
2018-01-11T18:57:00.251Z,65.07
2018-01-11T18:59:28.524Z,55.53
2018-01-11T19:01:56.784Z,57.67
2018-01-11T19:04:25.065Z,53.43
2018-01-11T19:06:53.364Z,52.90
2018-01-11T19:09:21.638Z,47.50
2018-01-11T19:11:49.884Z,50.77
2018-01-11T19:14:18.295Z,52.90
2018-01-11T19:16:46.573Z,49.97
2018-01-11T19:19:15.056Z,57.60
2018-01-11T19:21:43.310Z,59.43
2018-01-11T19:24:11.583Z,59.33
2018-01-11T19:26:39.847Z,56.13
2018-01-11T19:29:08.131Z,55.20
2018-01-11T19:31:36.396Z,61.57
2018-01-11T19:34:04.677Z,63.27
2018-01-11T19:36:32.940Z,56.23
2018-01-11T19:39:01.277Z,54.10
2018-01-11T19:41:29.556Z,57.93
2018-01-11T19:43:57.926Z,55.53
2018-01-11T19:46:26.305Z,91.37
2018-01-11T19:48:54.562Z,60.80
2018-01-11T19:51:22.864Z,64.23
2018-01-11T19:53:51.124Z,57.40
2018-01-11T19:56:19.412Z,48.30
2018-01-11T19:58:47.793Z,63.90
2018-01-11T20:01:16.083Z,61.23
2018-01-11T20:03:45.117Z,64.33
2018-01-11T20:06:13.391Z,74.63
2018-01-11T20:08:41.676Z,56.80
2018-01-11T20:11:09.944Z,66.30
2018-01-11T20:13:38.369Z,66.27
2018-01-11T20:16:06.617Z,58.13
2018-01-11T20:18:34.907Z,76.57
2018-01-11T20:21:03.177Z,63.43
2018-01-11T20:23:31.481Z,61.97
2018-01-11T20:25:59.747Z,74.47
2018-01-11T20:28:28.033Z,60.77
2018-01-11T20:30:56.326Z,64.80
2018-01-11T20:33:24.608Z,62.27
2018-01-11T20:35:53.636Z,59.90
2018-01-11T20:38:21.924Z,65.87
2018-01-11T20:40:50.196Z,63.00
2018-01-11T20:43:18.537Z,58.03
2018-01-11T20:45:46.908Z,63.70
2018-01-11T20:48:15.198Z,71.57
2018-01-11T20:50:44.241Z,52.70
2018-01-11T20:53:12.496Z,68.00
2018-01-11T20:55:40.785Z,68.70
2018-01-11T20:58:09.048Z,76.17
2018-01-11T21:00:37.344Z,69.57
2018-01-11T21:03:05.604Z,73.87
2018-01-11T21:05:33.896Z,65.50
2018-01-11T21:08:02.174Z,74.30
2018-01-11T21:10:31.258Z,71.70
2018-01-11T21:12:59.589Z,82.70
2018-01-11T21:15:27.883Z,78.40
2018-01-11T21:17:56.147Z,82.43
2018-01-11T21:20:24.611Z,69.57
2018-01-11T21:22:52.843Z,81.93
2018-01-11T21:25:21.127Z,73.90
2018-01-11T21:27:49.410Z,80.17
2018-01-11T21:30:17.780Z,73.10
2018-01-11T21:32:46.163Z,91.23
2018-01-11T21:35:14.420Z,78.83
2018-01-11T21:37:42.724Z,74.50
2018-01-11T21:40:10.992Z,82.47
2018-01-11T21:42:39.296Z,92.53
2018-01-11T21:45:08.336Z,76.17
2018-01-11T21:47:36.637Z,70.10
2018-01-11T21:50:04.908Z,80.60
2018-01-11T21:52:33.297Z,83.60
2018-01-11T21:55:01.672Z,73.33
2018-01-11T21:57:29.964Z,74.50
2018-01-11T21:59:58.329Z,108.67
2018-01-11T22:02:26.581Z,86.27
2018-01-11T22:04:54.859Z,86.50
2018-01-11T22:07:23.128Z,77.80
2018-01-11T22:09:51.420Z,81.73
2018-01-11T22:12:19.692Z,82.40
2018-01-11T22:14:47.980Z,81.97
2018-01-11T22:17:16.274Z,69.40
2018-01-11T22:19:44.568Z,68.77
2018-01-11T22:22:12.921Z,77.50
2018-01-11T22:24:41.208Z,74.63
2018-01-11T22:27:09.481Z,70.87
2018-01-11T22:29:37.760Z,72.90
2018-01-11T22:32:06.029Z,79.97
2018-01-11T22:34:34.312Z,76.63
2018-01-11T22:37:02.577Z,69.40
2018-01-11T22:39:30.967Z,68.23
2018-01-11T22:41:59.348Z,63.53
2018-01-11T22:44:27.632Z,75.20
2018-01-11T22:46:55.900Z,71.40
2018-01-11T22:49:24.190Z,77.27
2018-01-11T22:51:52.453Z,75.00
2018-01-11T22:54:20.745Z,93.77
2018-01-11T22:56:49.028Z,65.40
2018-01-11T22:59:18.816Z,72.00
2018-01-11T23:01:47.101Z,72.07
2018-01-11T23:04:15.431Z,69.30
2018-01-11T23:06:43.753Z,80.10
2018-01-11T23:09:12.030Z,72.03
2018-01-11T23:11:43.287Z,78.63
2018-01-11T23:14:11.562Z,73.37
2018-01-11T23:16:40.661Z,73.30
2018-01-11T23:19:09.043Z,81.40
2018-01-11T23:21:38.088Z,84.60
2018-01-11T23:24:06.356Z,59.23
2018-01-11T23:26:34.645Z,86.33
2018-01-11T23:29:02.908Z,80.90
2018-01-11T23:31:31.215Z,65.87
2018-01-11T23:33:59.475Z,87.37
2018-01-11T23:36:27.820Z,84.40
2018-01-11T23:38:56.858Z,81.80
2018-01-11T23:41:25.165Z,90.00
2018-01-11T23:43:53.416Z,83.70
2018-01-11T23:46:22.633Z,85.97
2018-01-11T23:48:51.064Z,66.93
2018-01-11T23:51:19.443Z,82.63
2018-01-11T23:53:47.828Z,75.10
2018-01-11T23:56:16.090Z,61.93
2018-01-11T23:58:44.380Z,70.13
